createdAt,value
2022-10-19T00:00:06.934Z,25.99
2022-10-19T00:00:17.051Z,25.98
2022-10-19T00:00:27.168Z,25.99
2022-10-19T00:00:37.291Z,25.98
2022-10-19T00:00:47.289Z,25.99
2022-10-19T00:00:57.304Z,25.98
2022-10-19T00:01:07.714Z,25.98
2022-10-19T00:01:17.683Z,25.98
2022-10-19T00:01:27.677Z,25.98
2022-10-19T00:01:38.122Z,25.98
2022-10-19T00:01:48.173Z,25.97
2022-10-19T00:01:58.224Z,25.98
2022-10-19T00:02:08.316Z,25.98
2022-10-19T00:02:18.401Z,25.97
2022-10-19T00:02:28.462Z,25.97
2022-10-19T00:02:38.449Z,25.97
2022-10-19T00:02:48.442Z,25.98
2022-10-19T00:02:58.557Z,25.97
2022-10-19T00:03:08.671Z,25.97
2022-10-19T00:03:22.313Z,25.97
2022-10-19T00:03:28.889Z,25.93
2022-10-19T00:03:39.108Z,25.94
2022-10-19T00:04:00.013Z,25.95
2022-10-19T00:04:09.182Z,25.93
2022-10-19T00:04:19.297Z,25.94
2022-10-19T00:04:29.299Z,25.94
2022-10-19T00:04:39.416Z,25.94
2022-10-19T00:04:49.530Z,25.94
2022-10-19T00:04:59.660Z,25.94
2022-10-19T00:05:09.652Z,25.94
2022-10-19T00:05:19.771Z,25.94
2022-10-19T00:05:30.024Z,25.94
2022-10-19T00:05:40.138Z,25.95
2022-10-19T00:05:50.255Z,25.95
2022-10-19T00:06:00.375Z,25.95
2022-10-19T00:06:10.381Z,25.95
2022-10-19T00:06:20.501Z,25.96
2022-10-19T00:06:30.764Z,25.95
2022-10-19T00:06:40.883Z,25.95
2022-10-19T00:06:51.005Z,25.95
2022-10-19T00:07:01.128Z,25.95
2022-10-19T00:07:11.239Z,25.95
2022-10-19T00:07:21.359Z,25.95
2022-10-19T00:07:31.825Z,25.95
2022-10-19T00:07:41.570Z,25.94
2022-10-19T00:07:51.682Z,25.93
2022-10-19T00:08:01.931Z,25.94
2022-10-19T00:08:11.938Z,25.94
2022-10-19T00:08:22.059Z,25.93
2022-10-19T00:08:32.316Z,25.93
2022-10-19T00:08:42.438Z,25.93
2022-10-19T00:08:52.447Z,25.92
2022-10-19T00:09:02.685Z,25.93
2022-10-19T00:09:12.795Z,25.92
2022-10-19T00:09:22.921Z,25.93
2022-10-19T00:09:33.046Z,25.92
2022-10-19T00:09:43.171Z,25.92
2022-10-19T00:09:53.171Z,25.91
2022-10-19T00:10:03.417Z,25.91
2022-10-19T00:10:13.534Z,25.91
2022-10-19T00:10:23.658Z,25.92
2022-10-19T00:10:33.781Z,25.91
2022-10-19T00:10:43.920Z,25.90
2022-10-19T00:10:53.911Z,25.90
2022-10-19T00:11:04.162Z,25.91
2022-10-19T00:11:14.177Z,25.90
2022-10-19T00:11:24.276Z,25.90
2022-10-19T00:11:34.627Z,25.90
2022-10-19T00:11:44.619Z,25.90
2022-10-19T00:11:54.618Z,25.90
2022-10-19T00:12:04.623Z,25.89
2022-10-19T00:12:14.626Z,25.89
2022-10-19T00:12:24.742Z,25.89
2022-10-19T00:12:34.881Z,25.90
2022-10-19T00:12:44.964Z,25.89
2022-10-19T00:12:54.954Z,25.89
2022-10-19T00:13:05.073Z,25.89
2022-10-19T00:13:15.185Z,25.88
2022-10-19T00:13:25.301Z,25.88
2022-10-19T00:13:35.417Z,25.88
2022-10-19T00:13:45.540Z,25.89
2022-10-19T00:13:55.537Z,25.89
2022-10-19T00:14:05.669Z,25.89
2022-10-19T00:14:15.791Z,25.88
2022-10-19T00:14:25.922Z,25.88
2022-10-19T00:14:36.029Z,25.88
2022-10-19T00:14:46.150Z,25.87
2022-10-19T00:14:56.267Z,25.87
2022-10-19T00:15:06.385Z,25.87
2022-10-19T00:15:16.519Z,25.86
2022-10-19T00:15:26.633Z,25.86
2022-10-19T00:15:36.632Z,25.86
2022-10-19T00:15:46.878Z,25.86
2022-10-19T00:15:56.993Z,25.86
2022-10-19T00:16:10.609Z,25.86
2022-10-19T00:16:17.221Z,25.81
2022-10-19T00:16:27.259Z,25.82
2022-10-19T00:16:37.382Z,25.84
2022-10-19T00:16:47.495Z,25.83
2022-10-19T00:16:57.620Z,25.84
2022-10-19T00:17:07.616Z,25.83
2022-10-19T00:17:17.733Z,25.84
2022-10-19T00:17:28.005Z,25.83
2022-10-19T00:17:37.992Z,25.84
2022-10-19T00:17:48.117Z,25.83
2022-10-19T00:17:58.362Z,25.84
2022-10-19T00:18:08.476Z,25.83
2022-10-19T00:18:18.592Z,25.84
2022-10-19T00:18:28.718Z,25.83
2022-10-19T00:18:38.853Z,25.83
2022-10-19T00:18:48.841Z,25.82
2022-10-19T00:18:59.084Z,25.82
2022-10-19T00:19:09.223Z,25.82
2022-10-19T00:19:19.322Z,25.82
2022-10-19T00:19:29.440Z,25.82
2022-10-19T00:19:39.558Z,25.82
2022-10-19T00:19:49.568Z,25.82
2022-10-19T00:19:59.816Z,25.82
2022-10-19T00:20:09.833Z,25.82
2022-10-19T00:20:19.938Z,25.81
2022-10-19T00:20:30.184Z,25.81
2022-10-19T00:20:40.303Z,25.81
2022-10-19T00:20:50.296Z,25.80
2022-10-19T00:21:00.549Z,25.80
2022-10-19T00:21:10.664Z,25.80
2022-10-19T00:21:20.835Z,25.80
2022-10-19T00:21:30.951Z,25.80
2022-10-19T00:21:41.135Z,25.80
2022-10-19T00:22:01.302Z,25.80
2022-10-19T00:22:13.838Z,25.80
2022-10-19T00:22:21.373Z,25.77
2022-10-19T00:22:31.709Z,25.78
2022-10-19T00:22:41.444Z,25.77
2022-10-19T00:22:51.562Z,25.77
2022-10-19T00:23:01.679Z,25.78
2022-10-19T00:23:11.794Z,25.78
2022-10-19T00:23:21.924Z,25.78
2022-10-19T00:23:31.932Z,25.77
2022-10-19T00:23:41.928Z,25.77
2022-10-19T00:23:52.049Z,25.77
2022-10-19T00:24:02.176Z,25.77
2022-10-19T00:24:12.284Z,25.77
2022-10-19T00:24:22.408Z,25.77
2022-10-19T00:24:32.522Z,25.77
2022-10-19T00:24:42.647Z,25.77
2022-10-19T00:24:52.774Z,25.77
2022-10-19T00:25:02.893Z,25.77
2022-10-19T00:25:12.891Z,25.77
2022-10-19T00:25:23.009Z,25.77
2022-10-19T00:25:33.008Z,25.77
2022-10-19T00:25:43.121Z,25.76
2022-10-19T00:25:53.367Z,25.75
2022-10-19T00:26:03.487Z,25.76
2022-10-19T00:26:13.484Z,25.76
2022-10-19T00:26:23.732Z,25.76
2022-10-19T00:26:33.847Z,25.76
2022-10-19T00:26:43.972Z,25.75
2022-10-19T00:26:54.085Z,25.75
2022-10-19T00:27:04.202Z,25.75
2022-10-19T00:27:14.325Z,25.74
2022-10-19T00:27:24.451Z,25.73
2022-10-19T00:27:34.569Z,25.74
2022-10-19T00:27:44.686Z,25.74
2022-10-19T00:27:54.810Z,25.74
2022-10-19T00:28:04.916Z,25.73
2022-10-19T00:28:14.913Z,25.74
2022-10-19T00:28:25.363Z,25.74
2022-10-19T00:28:35.288Z,25.74
2022-10-19T00:28:45.357Z,25.73
2022-10-19T00:28:55.732Z,25.73
2022-10-19T00:29:05.808Z,25.73
2022-10-19T00:29:15.894Z,25.73
2022-10-19T00:29:26.150Z,25.73
2022-10-19T00:29:36.268Z,25.72
2022-10-19T00:29:46.386Z,25.72
2022-10-19T00:29:56.510Z,25.72
2022-10-19T00:30:06.630Z,25.72
2022-10-19T00:30:16.746Z,25.72
2022-10-19T00:30:26.868Z,25.71
2022-10-19T00:30:36.914Z,25.72
2022-10-19T00:30:46.936Z,25.71
2022-10-19T00:30:57.318Z,25.71
2022-10-19T00:31:07.433Z,25.71
2022-10-19T00:31:17.430Z,25.70
2022-10-19T00:31:27.702Z,25.70
2022-10-19T00:31:37.792Z,25.70
2022-10-19T00:31:47.913Z,25.70
2022-10-19T00:31:58.038Z,25.69
2022-10-19T00:32:08.159Z,25.69
2022-10-19T00:32:18.152Z,25.69
2022-10-19T00:32:28.397Z,25.68
2022-10-19T00:32:38.540Z,25.68
2022-10-19T00:32:48.529Z,25.69
2022-10-19T00:32:58.775Z,25.68
2022-10-19T00:33:08.901Z,25.68
2022-10-19T00:33:18.893Z,25.68
2022-10-19T00:33:29.149Z,25.68
2022-10-19T00:33:39.273Z,25.68
2022-10-19T00:33:49.379Z,25.68
2022-10-19T00:33:59.511Z,25.68
2022-10-19T00:34:09.631Z,25.68
2022-10-19T00:34:19.624Z,25.68
2022-10-19T00:34:29.883Z,25.67
2022-10-19T00:34:39.881Z,25.68
2022-10-19T00:34:49.989Z,25.68
2022-10-19T00:35:00.243Z,25.67
2022-10-19T00:35:10.363Z,25.67
2022-10-19T00:35:20.368Z,25.67
2022-10-19T00:35:30.630Z,25.67
2022-10-19T00:35:40.630Z,25.67
2022-10-19T00:35:50.751Z,25.68
2022-10-19T00:36:01.012Z,25.67
2022-10-19T00:36:11.132Z,25.67
2022-10-19T00:36:21.124Z,25.67
2022-10-19T00:36:31.372Z,25.66
2022-10-19T00:36:41.381Z,25.66
2022-10-19T00:36:51.495Z,25.66
2022-10-19T00:37:01.742Z,25.65
2022-10-19T00:37:11.857Z,25.65
2022-10-19T00:37:21.973Z,25.65
2022-10-19T00:37:32.096Z,25.64
2022-10-19T00:37:42.210Z,25.66
2022-10-19T00:37:52.329Z,25.65
2022-10-19T00:38:02.464Z,25.65
2022-10-19T00:38:12.583Z,25.64
2022-10-19T00:38:22.697Z,25.64
2022-10-19T00:38:32.821Z,25.64
2022-10-19T00:38:42.834Z,25.63
2022-10-19T00:38:52.826Z,25.63
2022-10-19T00:39:03.196Z,25.63
2022-10-19T00:39:13.326Z,25.63
2022-10-19T00:39:23.434Z,25.63
2022-10-19T00:39:33.552Z,25.62
2022-10-19T00:39:43.712Z,25.63
2022-10-19T00:39:53.712Z,25.62
2022-10-19T00:40:03.952Z,25.62
2022-10-19T00:40:14.071Z,25.63
2022-10-19T00:40:24.068Z,25.61
2022-10-19T00:40:34.336Z,25.62
2022-10-19T00:40:44.325Z,25.62
2022-10-19T00:40:54.448Z,25.61
2022-10-19T00:41:04.702Z,25.61
2022-10-19T00:41:14.825Z,25.62
2022-10-19T00:41:24.936Z,25.61
2022-10-19T00:41:35.057Z,25.60
2022-10-19T00:41:45.183Z,25.61
2022-10-19T00:41:55.305Z,25.60
2022-10-19T00:42:05.426Z,25.60
2022-10-19T00:42:15.541Z,25.60
2022-10-19T00:42:25.541Z,25.61
2022-10-19T00:42:35.971Z,25.60
2022-10-19T00:42:45.833Z,25.59
2022-10-19T00:42:55.952Z,25.60
2022-10-19T00:43:06.219Z,25.59
2022-10-19T00:43:16.325Z,25.59
2022-10-19T00:43:26.440Z,25.59
2022-10-19T00:43:36.561Z,25.59
2022-10-19T00:43:46.561Z,25.59
2022-10-19T00:43:56.563Z,25.59
2022-10-19T00:44:06.938Z,25.59
2022-10-19T00:44:17.062Z,25.58
2022-10-19T00:44:27.172Z,25.59
2022-10-19T00:44:37.289Z,25.58
2022-10-19T00:44:47.403Z,25.58
2022-10-19T00:44:57.525Z,25.58
2022-10-19T00:45:07.656Z,25.57
2022-10-19T00:45:17.779Z,25.58
2022-10-19T00:45:27.900Z,25.58
2022-10-19T00:45:38.024Z,25.57
2022-10-19T00:45:48.022Z,25.57
2022-10-19T00:45:58.143Z,25.57
2022-10-19T00:46:08.387Z,25.58
2022-10-19T00:46:18.503Z,25.57
2022-10-19T00:46:28.618Z,25.57
2022-10-19T00:46:38.775Z,25.57
2022-10-19T00:46:48.749Z,25.57
2022-10-19T00:46:58.864Z,25.57
2022-10-19T00:47:09.113Z,25.57
2022-10-19T00:47:19.239Z,25.57
2022-10-19T00:47:29.235Z,25.56
2022-10-19T00:47:39.485Z,25.55
2022-10-19T00:47:49.596Z,25.56
2022-10-19T00:47:59.711Z,25.56
2022-10-19T00:48:09.832Z,25.56
2022-10-19T00:48:19.952Z,25.55
2022-10-19T00:48:30.061Z,25.56
2022-10-19T00:48:40.242Z,25.56
2022-10-19T00:48:50.284Z,25.55
2022-10-19T00:49:01.462Z,25.54
2022-10-19T00:49:11.084Z,25.53
2022-10-19T00:49:20.584Z,25.53
2022-10-19T00:49:30.591Z,25.53
2022-10-19T00:49:40.719Z,25.53
2022-10-19T00:49:50.714Z,25.53
2022-10-19T00:50:00.834Z,25.53
2022-10-19T00:50:10.838Z,25.54
2022-10-19T00:50:20.954Z,25.53
2022-10-19T00:50:31.077Z,25.53
2022-10-19T00:50:41.204Z,25.53
2022-10-19T00:50:51.321Z,25.53
2022-10-19T00:51:01.317Z,25.53
2022-10-19T00:51:11.445Z,25.52
2022-10-19T00:51:21.439Z,25.52
2022-10-19T00:51:31.694Z,25.52
2022-10-19T00:51:41.808Z,25.52
2022-10-19T00:51:51.930Z,25.51
2022-10-19T00:52:02.048Z,25.52
2022-10-19T00:52:12.048Z,25.52
2022-10-19T00:52:22.186Z,25.52
2022-10-19T00:52:32.815Z,25.52
2022-10-19T00:52:42.529Z,25.52
2022-10-19T00:52:52.525Z,25.52
2022-10-19T00:53:02.908Z,25.51
2022-10-19T00:53:13.027Z,25.51
2022-10-19T00:53:23.144Z,25.51
2022-10-19T00:53:33.278Z,25.52
2022-10-19T00:53:43.405Z,25.51
2022-10-19T00:53:53.401Z,25.51
2022-10-19T00:54:03.652Z,25.52
2022-10-19T00:54:13.652Z,25.51
2022-10-19T00:54:23.767Z,25.51
2022-10-19T00:54:34.016Z,25.51
2022-10-19T00:54:44.146Z,25.51
2022-10-19T00:54:54.280Z,25.51
2022-10-19T00:55:04.404Z,25.51
2022-10-19T00:55:14.520Z,25.51
2022-10-19T00:55:24.641Z,25.51
2022-10-19T00:55:34.766Z,25.51
2022-10-19T00:55:44.770Z,25.51
2022-10-19T00:55:54.780Z,25.51
2022-10-19T00:56:05.153Z,25.51
2022-10-19T00:56:15.156Z,25.50
2022-10-19T00:56:25.277Z,25.50
2022-10-19T00:56:35.523Z,25.50
2022-10-19T00:56:45.654Z,25.49
2022-10-19T00:56:55.652Z,25.49
2022-10-19T00:57:05.904Z,25.49
2022-10-19T00:57:15.901Z,25.49
2022-10-19T00:57:26.094Z,25.48
2022-10-19T00:57:36.250Z,25.48
2022-10-19T00:57:46.429Z,25.48
2022-10-19T00:57:56.409Z,25.48
2022-10-19T00:58:06.667Z,25.47
2022-10-19T00:58:16.666Z,25.47
2022-10-19T00:58:26.782Z,25.47
2022-10-19T00:58:37.042Z,25.47
2022-10-19T00:58:47.044Z,25.48
2022-10-19T00:58:57.053Z,25.47
2022-10-19T00:59:07.437Z,25.48
2022-10-19T00:59:17.555Z,25.47
2022-10-19T00:59:27.674Z,25.47
2022-10-19T00:59:37.799Z,25.47
2022-10-19T00:59:47.913Z,25.47
2022-10-19T00:59:58.030Z,25.47
2022-10-19T01:00:08.198Z,25.47
2022-10-19T01:02:30.342Z,24.89
2022-10-19T01:02:40.306Z,24.98
2022-10-19T01:02:50.297Z,25.05
2022-10-19T01:03:39.939Z,24.91
2022-10-19T01:03:50.060Z,24.99
2022-10-19T01:04:00.184Z,25.05
2022-10-19T01:04:10.307Z,25.10
2022-10-19T01:04:20.419Z,25.13
2022-10-19T01:04:30.552Z,25.16
2022-10-19T01:04:40.665Z,25.19
2022-10-19T01:04:50.780Z,25.21
2022-10-19T01:05:00.902Z,25.22
2022-10-19T01:05:11.023Z,25.24
2022-10-19T01:05:21.141Z,25.26
2022-10-19T01:05:31.256Z,25.27
2022-10-19T01:05:41.376Z,25.29
2022-10-19T01:05:51.495Z,25.29
2022-10-19T01:06:01.617Z,25.31
2022-10-19T01:06:11.739Z,25.32
2022-10-19T01:06:21.857Z,25.33
2022-10-19T01:06:31.854Z,25.34
2022-10-19T01:06:42.180Z,25.35
2022-10-19T01:06:52.187Z,25.36
2022-10-19T01:07:02.293Z,25.36
2022-10-19T01:07:12.538Z,25.37
2022-10-19T01:07:22.655Z,25.37
2022-10-19T01:07:32.902Z,25.37
2022-10-19T01:07:43.006Z,25.38
2022-10-19T01:07:53.121Z,25.39
2022-10-19T01:08:03.244Z,25.38
2022-10-19T01:08:13.373Z,25.39
2022-10-19T01:08:23.505Z,25.39
2022-10-19T01:08:33.494Z,25.39
2022-10-19T01:08:43.748Z,25.40
2022-10-19T01:08:53.746Z,25.40
2022-10-19T01:09:03.862Z,25.41
2022-10-19T01:09:14.118Z,25.41
2022-10-19T01:09:24.248Z,25.41
2022-10-19T01:09:34.250Z,25.41
2022-10-19T01:09:44.498Z,25.41
2022-10-19T01:09:54.615Z,25.42
2022-10-19T01:10:04.740Z,25.41
2022-10-19T01:10:14.868Z,25.42
2022-10-19T01:10:24.980Z,25.41
2022-10-19T01:10:34.975Z,25.41
2022-10-19T01:10:45.222Z,25.42
2022-10-19T01:10:55.336Z,25.41
2022-10-19T01:11:05.452Z,25.42
2022-10-19T01:11:15.584Z,25.42
2022-10-19T01:11:25.688Z,25.42
2022-10-19T01:11:35.686Z,25.42
2022-10-19T01:11:45.935Z,25.42
2022-10-19T01:11:55.930Z,25.42
2022-10-19T01:12:06.051Z,25.41
2022-10-19T01:12:16.299Z,25.42
2022-10-19T01:12:26.419Z,25.42
2022-10-19T01:12:36.533Z,25.42
2022-10-19T01:12:46.662Z,25.42
2022-10-19T01:12:56.654Z,25.42
2022-10-19T01:13:06.775Z,25.41
2022-10-19T01:13:17.016Z,25.41
2022-10-19T01:13:27.131Z,25.41
2022-10-19T01:13:37.128Z,25.41
2022-10-19T01:13:47.388Z,25.41
2022-10-19T01:13:57.387Z,25.41
2022-10-19T01:14:07.502Z,25.41
2022-10-19T01:14:17.770Z,25.41
2022-10-19T01:14:27.758Z,25.41
2022-10-19T01:14:37.886Z,25.41
2022-10-19T01:14:48.130Z,25.40
2022-10-19T01:14:58.243Z,25.41
2022-10-19T01:15:08.362Z,25.41
2022-10-19T01:15:18.494Z,25.40
2022-10-19T01:15:28.504Z,25.40
2022-10-19T01:15:38.492Z,25.41
2022-10-19T01:15:48.937Z,25.41
2022-10-19T01:15:58.912Z,25.41
2022-10-19T01:16:09.030Z,25.41
2022-10-19T01:16:19.273Z,25.40
2022-10-19T01:16:29.393Z,25.40
2022-10-19T01:16:39.521Z,25.41
2022-10-19T01:16:49.635Z,25.40
2022-10-19T01:16:59.759Z,25.40
2022-10-19T01:17:09.880Z,25.40
2022-10-19T01:17:19.998Z,25.39
2022-10-19T01:17:30.215Z,25.40
2022-10-19T01:17:40.163Z,25.39
2022-10-19T01:17:50.393Z,25.39
2022-10-19T01:18:00.521Z,25.40
2022-10-19T01:18:10.515Z,25.39
2022-10-19T01:18:20.855Z,25.40
2022-10-19T01:18:30.843Z,25.40
2022-10-19T01:18:40.960Z,25.39
2022-10-19T01:18:51.208Z,25.39
2022-10-19T01:19:01.336Z,25.39
2022-10-19T01:19:11.331Z,25.39
2022-10-19T01:19:21.584Z,25.40
2022-10-19T01:19:31.700Z,25.39
2022-10-19T01:19:41.820Z,25.39
2022-10-19T01:19:51.942Z,25.39
2022-10-19T01:20:02.059Z,25.39
2022-10-19T01:20:12.066Z,25.38
2022-10-19T01:20:22.312Z,25.38
2022-10-19T01:20:32.424Z,25.39
2022-10-19T01:20:42.542Z,25.39
2022-10-19T01:20:52.698Z,25.39
2022-10-19T01:21:02.690Z,25.39
2022-10-19T01:21:12.803Z,25.38
2022-10-19T01:21:23.049Z,25.39
2022-10-19T01:21:33.165Z,25.38
2022-10-19T01:21:43.283Z,25.38
2022-10-19T01:21:53.404Z,25.38
2022-10-19T01:22:03.524Z,25.38
2022-10-19T01:22:13.521Z,25.38
2022-10-19T01:22:23.769Z,25.38
2022-10-19T01:22:33.767Z,25.37
2022-10-19T01:22:43.885Z,25.38
2022-10-19T01:22:54.131Z,25.38
2022-10-19T01:23:04.248Z,25.38
2022-10-19T01:23:14.244Z,25.38
2022-10-19T01:23:24.493Z,25.38
2022-10-19T01:23:34.607Z,25.38
2022-10-19T01:23:44.725Z,25.37
2022-10-19T01:23:54.860Z,25.38
2022-10-19T01:24:04.855Z,25.37
2022-10-19T01:24:14.854Z,25.38
2022-10-19T01:24:25.229Z,25.37
2022-10-19T01:24:37.110Z,25.38
2022-10-19T01:24:45.400Z,25.33
2022-10-19T01:25:05.764Z,25.35
2022-10-19T01:25:15.882Z,25.36
2022-10-19T01:25:26.007Z,25.36
2022-10-19T01:25:36.120Z,25.36
2022-10-19T01:25:46.238Z,25.36
2022-10-19T01:25:56.369Z,25.36
2022-10-19T01:26:06.485Z,25.36
2022-10-19T01:26:16.606Z,25.36
2022-10-19T01:26:26.728Z,25.36
2022-10-19T01:26:36.742Z,25.36
2022-10-19T01:26:46.732Z,25.37
2022-10-19T01:26:57.107Z,25.37
2022-10-19T01:27:07.233Z,25.36
2022-10-19T01:27:17.226Z,25.37
2022-10-19T01:27:27.474Z,25.37
2022-10-19T01:27:37.596Z,25.36
2022-10-19T01:27:47.708Z,25.36
2022-10-19T01:27:57.834Z,25.36
2022-10-19T01:28:07.952Z,25.36
2022-10-19T01:28:18.067Z,25.37
2022-10-19T01:28:28.213Z,25.36
2022-10-19T01:28:38.332Z,25.35
2022-10-19T01:28:48.305Z,25.36
2022-10-19T01:28:58.377Z,25.36
2022-10-19T01:29:08.519Z,25.36
2022-10-19T01:29:18.422Z,25.36
2022-10-19T01:29:28.539Z,25.37
2022-10-19T01:29:38.669Z,25.37
2022-10-19T01:29:48.786Z,25.36
2022-10-19T01:29:58.800Z,25.36
2022-10-19T01:30:08.806Z,25.36
2022-10-19T01:30:18.920Z,25.35
2022-10-19T01:30:29.035Z,25.36
2022-10-19T01:30:39.156Z,25.36
2022-10-19T01:30:49.273Z,25.36
2022-10-19T01:30:59.274Z,25.36
2022-10-19T01:31:09.534Z,25.36
2022-10-19T01:31:19.690Z,25.36
2022-10-19T01:31:29.692Z,25.36
2022-10-19T01:31:39.945Z,25.36
2022-10-19T01:31:50.046Z,25.36
2022-10-19T01:32:00.163Z,25.35
2022-10-19T01:32:10.285Z,25.36
2022-10-19T01:32:20.280Z,25.36
2022-10-19T01:32:30.398Z,25.36
2022-10-19T01:32:40.641Z,25.36
2022-10-19T01:32:50.789Z,25.36
2022-10-19T01:33:00.892Z,25.36
2022-10-19T01:33:11.015Z,25.36
2022-10-19T01:33:21.014Z,25.36
2022-10-19T01:33:31.130Z,25.36
2022-10-19T01:33:41.399Z,25.36
2022-10-19T01:33:51.434Z,25.36
2022-10-19T01:34:01.444Z,25.36
2022-10-19T01:34:11.432Z,25.36
2022-10-19T01:34:21.433Z,25.36
2022-10-19T01:34:31.564Z,25.37
2022-10-19T01:34:41.561Z,25.36
2022-10-19T01:34:51.688Z,25.37
2022-10-19T01:35:01.680Z,25.36
2022-10-19T01:35:11.804Z,25.36
2022-10-19T01:35:21.921Z,25.36
2022-10-19T01:35:32.033Z,25.36
2022-10-19T01:35:42.036Z,25.36
2022-10-19T01:35:52.156Z,25.36
2022-10-19T01:36:02.154Z,25.36
2022-10-19T01:36:12.280Z,25.36
2022-10-19T01:36:22.525Z,25.36
2022-10-19T01:36:32.642Z,25.35
2022-10-19T01:36:42.761Z,25.36
2022-10-19T01:36:52.880Z,25.36
2022-10-19T01:37:02.994Z,25.36
2022-10-19T01:37:13.118Z,25.36
2022-10-19T01:37:23.232Z,25.35
2022-10-19T01:37:33.678Z,25.35
2022-10-19T01:37:43.469Z,25.35
2022-10-19T01:37:53.591Z,25.35
2022-10-19T01:38:03.588Z,25.35
2022-10-19T01:38:13.706Z,25.35
2022-10-19T01:38:23.954Z,25.34
2022-10-19T01:38:34.071Z,25.34
2022-10-19T01:38:44.071Z,25.34
2022-10-19T01:38:54.321Z,25.35
2022-10-19T01:39:04.436Z,25.35
2022-10-19T01:39:14.555Z,25.36
2022-10-19T01:39:24.675Z,25.35
2022-10-19T01:39:34.677Z,25.35
2022-10-19T01:39:47.719Z,25.35
2022-10-19T01:39:54.801Z,25.29
2022-10-19T01:40:04.916Z,25.31
2022-10-19T01:40:15.051Z,25.32
2022-10-19T01:40:25.066Z,25.33
2022-10-19T01:40:35.058Z,25.33
2022-10-19T01:40:45.063Z,25.33
2022-10-19T01:40:55.195Z,25.34
2022-10-19T01:41:05.189Z,25.33
2022-10-19T01:41:15.304Z,25.33
2022-10-19T01:41:25.418Z,25.32
2022-10-19T01:41:35.533Z,25.34
2022-10-19T01:41:45.663Z,25.33
2022-10-19T01:41:55.781Z,25.34
2022-10-19T01:42:05.892Z,25.34
2022-10-19T01:42:16.013Z,25.34
2022-10-19T01:42:26.130Z,25.34
2022-10-19T01:42:36.243Z,25.34
2022-10-19T01:42:46.416Z,25.34
2022-10-19T01:42:56.394Z,25.34
2022-10-19T01:43:06.506Z,25.35
2022-10-19T01:43:16.754Z,25.33
2022-10-19T01:43:26.866Z,25.33
2022-10-19T01:43:36.983Z,25.34
2022-10-19T01:43:47.115Z,25.34
2022-10-19T01:43:57.112Z,25.34
2022-10-19T01:44:07.132Z,25.34
2022-10-19T01:44:17.508Z,25.34
2022-10-19T01:44:27.621Z,25.34
2022-10-19T01:44:37.751Z,25.33
2022-10-19T01:44:47.866Z,25.33
2022-10-19T01:44:57.996Z,25.34
2022-10-19T01:45:08.100Z,25.33
2022-10-19T01:45:18.218Z,25.33
2022-10-19T01:45:28.333Z,25.33
2022-10-19T01:45:38.451Z,25.34
2022-10-19T01:45:48.576Z,25.34
2022-10-19T01:45:58.577Z,25.34
2022-10-19T01:46:08.572Z,25.34
2022-10-19T01:46:18.960Z,25.34
2022-10-19T01:46:29.075Z,25.34
2022-10-19T01:46:39.198Z,25.35
2022-10-19T01:46:49.312Z,25.34
2022-10-19T01:46:59.313Z,25.34
2022-10-19T01:47:09.429Z,25.35
2022-10-19T01:47:19.687Z,25.35
2022-10-19T01:47:29.685Z,25.34
2022-10-19T01:47:39.804Z,25.35
2022-10-19T01:47:50.051Z,25.35
2022-10-19T01:48:00.196Z,25.35
2022-10-19T01:48:10.165Z,25.35
2022-10-19T01:48:20.418Z,25.35
2022-10-19T01:48:30.413Z,25.36
2022-10-19T01:48:40.539Z,25.35
2022-10-19T01:48:50.802Z,25.36
2022-10-19T01:49:00.917Z,25.36
2022-10-19T01:49:11.034Z,25.36
2022-10-19T01:49:21.154Z,25.37
2022-10-19T01:49:31.282Z,25.37
2022-10-19T01:49:41.390Z,25.37
2022-10-19T01:49:51.510Z,25.36
2022-10-19T01:50:01.627Z,25.37
2022-10-19T01:50:11.742Z,25.37
2022-10-19T01:50:21.865Z,25.36
2022-10-19T01:50:31.865Z,25.37
2022-10-19T01:50:41.988Z,25.37
2022-10-19T01:50:52.232Z,25.36
2022-10-19T01:51:02.352Z,25.36
2022-10-19T01:51:12.349Z,25.36
2022-10-19T01:51:22.601Z,25.36
2022-10-19T01:51:32.721Z,25.37
2022-10-19T01:51:42.833Z,25.37
2022-10-19T01:51:52.980Z,25.37
2022-10-19T01:52:02.970Z,25.36
2022-10-19T01:52:13.078Z,25.37
2022-10-19T01:52:23.326Z,25.37
2022-10-19T01:52:33.656Z,25.37
2022-10-19T01:52:43.379Z,25.36
2022-10-19T01:52:53.754Z,25.37
2022-10-19T01:53:03.878Z,25.36
2022-10-19T01:53:13.873Z,25.36
2022-10-19T01:53:24.128Z,25.37
2022-10-19T01:53:34.245Z,25.37
2022-10-19T01:53:44.361Z,25.37
2022-10-19T01:53:54.550Z,25.37
2022-10-19T01:54:04.541Z,25.37
2022-10-19T01:54:14.656Z,25.37
2022-10-19T01:54:24.904Z,25.37
2022-10-19T01:54:35.021Z,25.37
2022-10-19T01:54:45.147Z,25.37
2022-10-19T01:54:55.279Z,25.37
2022-10-19T01:55:05.384Z,25.38
2022-10-19T01:55:15.498Z,25.38
2022-10-19T01:55:25.636Z,25.38
2022-10-19T01:55:35.624Z,25.37
2022-10-19T01:55:45.744Z,25.38
2022-10-19T01:55:56.017Z,25.37
2022-10-19T01:56:06.005Z,25.36
2022-10-19T01:56:16.004Z,25.38
2022-10-19T01:56:26.378Z,25.37
2022-10-19T01:56:36.375Z,25.37
2022-10-19T01:56:46.497Z,25.37
2022-10-19T01:56:56.752Z,25.37
2022-10-19T01:57:06.870Z,25.37
2022-10-19T01:57:16.985Z,25.37
2022-10-19T01:57:27.104Z,25.37
2022-10-19T01:57:37.105Z,25.36
2022-10-19T01:57:47.222Z,25.36
2022-10-19T01:57:57.471Z,25.36
2022-10-19T01:58:09.542Z,25.36
2022-10-19T01:58:17.608Z,25.35
2022-10-19T01:58:27.727Z,25.35
2022-10-19T01:58:37.843Z,25.34
2022-10-19T01:58:47.963Z,25.34
2022-10-19T01:58:57.967Z,25.34
2022-10-19T01:59:08.087Z,25.33
2022-10-19T01:59:18.087Z,25.34
2022-10-19T01:59:28.205Z,25.34
2022-10-19T01:59:38.326Z,25.34
2022-10-19T01:59:48.444Z,25.34
2022-10-19T01:59:58.558Z,25.34
2022-10-19T02:00:08.681Z,25.34
2022-10-19T02:00:18.796Z,25.33
2022-10-19T02:00:28.913Z,25.33
2022-10-19T02:00:39.169Z,25.34
2022-10-19T02:00:49.151Z,25.33
2022-10-19T02:00:59.142Z,25.33
2022-10-19T02:01:19.542Z,25.33
2022-10-19T02:01:29.543Z,25.32
2022-10-19T02:01:39.792Z,25.34
2022-10-19T02:01:49.904Z,25.33
2022-10-19T02:02:00.024Z,25.33
2022-10-19T02:02:10.164Z,25.33
2022-10-19T02:02:20.163Z,25.32
2022-10-19T02:02:30.473Z,25.33
2022-10-19T02:02:40.599Z,25.32
2022-10-19T02:02:50.604Z,25.33
2022-10-19T02:03:00.704Z,25.32
2022-10-19T02:03:10.986Z,25.32
2022-10-19T02:03:21.080Z,25.32
2022-10-19T02:03:31.196Z,25.32
2022-10-19T02:03:41.321Z,25.33
2022-10-19T02:03:51.438Z,25.32
2022-10-19T02:04:01.554Z,25.32
2022-10-19T02:04:11.684Z,25.32
2022-10-19T02:04:21.797Z,25.32
2022-10-19T02:04:31.912Z,25.31
2022-10-19T02:04:42.034Z,25.32
2022-10-19T02:04:52.028Z,25.32
2022-10-19T02:05:02.158Z,25.31
2022-10-19T02:05:12.402Z,25.31
2022-10-19T02:05:22.521Z,25.31
2022-10-19T02:05:32.634Z,25.32
2022-10-19T02:05:42.762Z,25.32
2022-10-19T02:05:52.880Z,25.32
2022-10-19T02:06:02.999Z,25.31
2022-10-19T02:06:13.162Z,25.32
2022-10-19T02:06:23.153Z,25.31
2022-10-19T02:06:33.267Z,25.31
2022-10-19T02:06:43.525Z,25.31
2022-10-19T02:06:53.528Z,25.31
2022-10-19T02:07:03.532Z,25.31
2022-10-19T02:07:13.521Z,25.31
2022-10-19T02:07:23.711Z,25.31
2022-10-19T02:07:33.672Z,25.31
2022-10-19T02:07:43.792Z,25.31
2022-10-19T02:07:53.919Z,25.31
2022-10-19T02:08:04.031Z,25.32
2022-10-19T02:08:14.146Z,25.31
2022-10-19T02:08:24.269Z,25.31
2022-10-19T02:08:34.390Z,25.30
2022-10-19T02:08:44.508Z,25.31
2022-10-19T02:08:54.511Z,25.31
2022-10-19T02:09:04.688Z,25.31
2022-10-19T02:09:14.662Z,25.31
2022-10-19T02:09:24.794Z,25.31
2022-10-19T02:09:34.783Z,25.31
2022-10-19T02:09:44.904Z,25.30
2022-10-19T02:09:55.025Z,25.31
2022-10-19T02:10:05.213Z,25.30
2022-10-19T02:10:25.401Z,25.31
2022-10-19T02:10:35.401Z,25.30
2022-10-19T02:10:45.519Z,25.31
2022-10-19T02:10:55.774Z,25.31
2022-10-19T02:11:05.889Z,25.30
2022-10-19T02:11:16.009Z,25.31
2022-10-19T02:11:26.126Z,25.30
2022-10-19T02:11:36.245Z,25.30
2022-10-19T02:11:49.003Z,25.31
2022-10-19T02:11:57.222Z,25.25
2022-10-19T02:12:06.404Z,25.27
2022-10-19T02:12:16.525Z,25.28
2022-10-19T02:12:26.647Z,25.29
2022-10-19T02:12:36.936Z,25.29
2022-10-19T02:12:46.802Z,25.29
2022-10-19T02:12:56.834Z,25.29
2022-10-19T02:13:06.923Z,25.28
2022-10-19T02:13:17.271Z,25.29
2022-10-19T02:13:27.399Z,25.29
2022-10-19T02:13:37.516Z,25.29
2022-10-19T02:13:47.643Z,25.29
2022-10-19T02:13:57.635Z,25.29